createdAt,value
2018-06-15T00:02:17.475Z,13.43
2018-06-15T00:04:45.091Z,11.23
2018-06-15T00:07:12.758Z,10.80
2018-06-15T00:09:40.345Z,11.67
2018-06-15T00:12:08.075Z,12.23
2018-06-15T00:14:35.751Z,12.30
2018-06-15T00:17:03.495Z,11.50
2018-06-15T00:19:31.144Z,12.40
2018-06-15T00:21:58.782Z,12.00
2018-06-15T00:24:26.543Z,12.57
2018-06-15T00:26:54.267Z,12.10
2018-06-15T00:29:21.922Z,11.20
2018-06-15T00:31:49.579Z,11.23
2018-06-15T00:34:17.458Z,11.37
2018-06-15T00:36:45.124Z,12.00
2018-06-15T00:39:13.597Z,11.87
2018-06-15T00:41:42.398Z,12.40
2018-06-15T00:44:10.231Z,11.37
2018-06-15T00:46:37.925Z,11.83
2018-06-15T00:49:06.102Z,11.80
2018-06-15T00:51:33.721Z,11.37
2018-06-15T00:54:02.140Z,12.60
2018-06-15T00:56:30.289Z,13.40
2018-06-15T00:58:57.963Z,12.50
2018-06-15T01:01:25.553Z,11.87
2018-06-15T01:03:54.491Z,12.37
2018-06-15T01:06:22.541Z,12.43
2018-06-15T01:08:50.547Z,12.53
2018-06-15T01:11:18.385Z,11.60
2018-06-15T01:13:46.039Z,11.83
2018-06-15T01:16:13.943Z,11.20
2018-06-15T01:18:41.604Z,11.77
2018-06-15T01:21:09.270Z,12.40
2018-06-15T01:23:37.003Z,13.20
2018-06-15T01:26:04.778Z,12.47
2018-06-15T01:28:33.455Z,12.40
2018-06-15T01:31:01.094Z,13.80
2018-06-15T01:33:28.788Z,11.90
2018-06-15T01:35:56.370Z,13.57
2018-06-15T01:38:24.029Z,11.20
2018-06-15T01:40:51.648Z,12.50
2018-06-15T01:43:19.294Z,13.40
2018-06-15T01:45:46.908Z,13.10
2018-06-15T01:48:14.578Z,13.33
2018-06-15T01:50:42.218Z,12.87
2018-06-15T01:53:09.912Z,12.10
2018-06-15T01:55:38.056Z,12.37
2018-06-15T01:58:05.726Z,13.30
2018-06-15T02:00:33.328Z,13.40
2018-06-15T02:03:00.958Z,14.50
2018-06-15T02:05:28.658Z,13.53
2018-06-15T02:07:56.298Z,13.00
2018-06-15T02:10:23.913Z,13.27
2018-06-15T02:12:51.658Z,14.07
2018-06-15T02:15:19.278Z,13.63
2018-06-15T02:17:47.001Z,14.90
2018-06-15T02:20:14.645Z,13.70
2018-06-15T02:22:42.429Z,14.20
2018-06-15T02:25:10.131Z,15.50
2018-06-15T02:27:37.797Z,13.67
2018-06-15T02:30:05.548Z,13.23
2018-06-15T02:32:33.249Z,15.03
2018-06-15T02:35:00.885Z,13.47
2018-06-15T02:37:28.601Z,15.10
2018-06-15T02:39:56.539Z,14.47
2018-06-15T02:42:24.203Z,15.40
2018-06-15T02:44:51.921Z,14.70
2018-06-15T02:47:19.529Z,14.53
2018-06-15T02:49:47.158Z,13.80
2018-06-15T02:52:14.794Z,12.90
2018-06-15T02:54:42.507Z,12.23
2018-06-15T02:57:10.114Z,12.90
2018-06-15T02:59:38.710Z,12.30
2018-06-15T03:02:06.414Z,13.50
2018-06-15T03:04:34.562Z,14.67
2018-06-15T03:07:02.246Z,13.40
2018-06-15T03:09:29.873Z,13.70
2018-06-15T03:11:57.514Z,13.43
2018-06-15T03:14:25.147Z,13.03
2018-06-15T03:16:52.874Z,12.07
2018-06-15T03:19:20.479Z,13.17
2018-06-15T03:21:48.185Z,13.83
2018-06-15T03:24:15.835Z,13.43
2018-06-15T03:26:44.241Z,14.17
2018-06-15T03:29:11.977Z,13.40
2018-06-15T03:31:39.961Z,14.20
2018-06-15T03:34:07.803Z,16.00
2018-06-15T03:36:35.391Z,12.60
2018-06-15T03:39:04.943Z,14.67
2018-06-15T03:41:32.609Z,14.23
2018-06-15T03:44:00.212Z,14.87
2018-06-15T03:46:27.902Z,15.00
2018-06-15T03:48:55.590Z,15.40
2018-06-15T03:51:23.134Z,15.43
2018-06-15T03:53:50.796Z,15.30
2018-06-15T03:56:18.470Z,14.10
2018-06-15T03:58:46.104Z,15.37
2018-06-15T04:01:13.771Z,15.33
2018-06-15T04:03:41.350Z,14.43
2018-06-15T04:06:08.955Z,15.33
2018-06-15T04:08:36.579Z,16.50
2018-06-15T04:11:04.194Z,12.40
2018-06-15T04:13:31.885Z,14.77
2018-06-15T04:15:59.578Z,14.00
2018-06-15T04:18:27.212Z,13.87
2018-06-15T04:20:54.952Z,13.70
2018-06-15T04:23:22.572Z,14.77
2018-06-15T04:25:50.193Z,14.03
2018-06-15T04:28:17.813Z,13.70
2018-06-15T04:30:45.451Z,15.47
2018-06-15T04:33:13.148Z,16.07
2018-06-15T04:35:40.841Z,14.73
2018-06-15T04:38:08.485Z,15.37
2018-06-15T04:40:36.139Z,15.40
2018-06-15T04:43:03.856Z,15.20
2018-06-15T04:45:31.541Z,15.50
2018-06-15T04:47:59.177Z,14.30
2018-06-15T04:50:26.829Z,15.57
2018-06-15T04:52:54.435Z,15.53
2018-06-15T04:55:22.851Z,15.20
2018-06-15T04:57:50.763Z,14.60
2018-06-15T05:00:18.397Z,15.70
2018-06-15T05:02:46.052Z,15.53
2018-06-15T05:05:13.726Z,16.20
2018-06-15T05:07:41.361Z,14.83
2018-06-15T05:10:09.014Z,14.93
2018-06-15T05:12:36.703Z,16.23
2018-06-15T05:15:04.434Z,14.40
2018-06-15T05:17:32.114Z,14.13
2018-06-15T05:19:59.888Z,14.20
2018-06-15T05:22:27.558Z,15.20
2018-06-15T05:24:55.208Z,15.40
2018-06-15T05:27:22.970Z,16.60
2018-06-15T05:29:50.681Z,17.20
2018-06-15T05:32:18.590Z,16.00
2018-06-15T05:34:46.287Z,15.27
2018-06-15T05:37:13.986Z,17.30
2018-06-15T05:39:41.646Z,17.17
2018-06-15T05:42:09.411Z,15.70
2018-06-15T05:44:37.053Z,15.27
2018-06-15T05:47:04.757Z,16.37
2018-06-15T05:49:32.392Z,15.57
2018-06-15T05:52:00.924Z,12.50
2018-06-15T05:54:28.682Z,14.97
2018-06-15T05:56:56.344Z,16.80
2018-06-15T05:59:24.006Z,15.60
2018-06-15T06:01:52.200Z,15.43
2018-06-15T06:04:19.876Z,17.03
2018-06-15T06:06:48.048Z,15.13
2018-06-15T06:09:15.778Z,16.00
2018-06-15T06:11:43.422Z,15.77
2018-06-15T06:14:11.084Z,16.13
2018-06-15T06:16:38.709Z,16.00
2018-06-15T06:19:06.344Z,16.00
2018-06-15T06:21:34.012Z,16.37
2018-06-15T06:24:01.698Z,16.33
2018-06-15T06:26:29.310Z,14.13
2018-06-15T06:28:57.004Z,16.67
2018-06-15T06:31:24.671Z,15.97
2018-06-15T06:33:53.053Z,16.80
2018-06-15T06:36:20.731Z,15.57
2018-06-15T06:38:48.427Z,15.77
2018-06-15T06:41:16.057Z,15.90
2018-06-15T06:43:43.803Z,14.27
2018-06-15T06:46:11.458Z,13.80
2018-06-15T06:48:39.111Z,12.87
2018-06-15T06:51:06.784Z,14.73
2018-06-15T06:53:34.426Z,14.87
2018-06-15T06:56:02.107Z,16.70
2018-06-15T06:58:29.853Z,16.03
2018-06-15T07:00:57.459Z,16.27
2018-06-15T07:03:25.077Z,15.83
2018-06-15T07:05:52.687Z,16.50
2018-06-15T07:08:20.451Z,15.40
2018-06-15T07:10:48.114Z,13.90
2018-06-15T07:13:16.031Z,17.10
2018-06-15T07:15:43.647Z,14.17
2018-06-15T07:18:11.295Z,16.30
2018-06-15T07:20:39.009Z,16.37
2018-06-15T07:23:07.178Z,14.07
2018-06-15T07:25:35.534Z,15.13
2018-06-15T07:28:03.257Z,16.03
2018-06-15T07:30:30.926Z,14.60
2018-06-15T07:32:58.580Z,15.93
2018-06-15T07:35:26.496Z,13.43
2018-06-15T07:37:54.204Z,12.30
2018-06-15T07:40:21.812Z,14.00
2018-06-15T07:42:49.397Z,13.00
2018-06-15T07:45:16.937Z,13.20
2018-06-15T07:47:44.562Z,9.83
2018-06-15T07:50:12.169Z,12.77
2018-06-15T07:52:39.865Z,12.30
2018-06-15T07:55:07.521Z,13.80
2018-06-15T07:57:35.184Z,13.37
2018-06-15T08:00:02.943Z,11.93
2018-06-15T08:02:30.580Z,13.63
2018-06-15T08:04:58.180Z,10.80
2018-06-15T08:07:25.863Z,12.00
2018-06-15T08:09:53.842Z,11.80
2018-06-15T08:12:21.490Z,10.70
2018-06-15T08:14:49.190Z,8.70
2018-06-15T08:17:17.230Z,11.10
2018-06-15T08:19:44.863Z,11.00
2018-06-15T08:22:12.534Z,13.27
2018-06-15T08:24:40.216Z,10.43
2018-06-15T08:27:07.882Z,10.00
2018-06-15T08:29:35.472Z,11.23
2018-06-15T08:32:03.154Z,9.93
2018-06-15T08:34:30.759Z,11.63
2018-06-15T08:36:58.358Z,9.37
2018-06-15T08:39:26.085Z,11.20
2018-06-15T08:41:54.199Z,11.40
2018-06-15T08:44:21.823Z,10.40
2018-06-15T08:46:49.452Z,11.23
2018-06-15T08:49:17.102Z,10.00
2018-06-15T08:51:44.738Z,10.23
2018-06-15T08:54:12.342Z,9.70
2018-06-15T08:56:39.971Z,8.57
2018-06-15T08:59:07.657Z,7.87
2018-06-15T09:01:35.311Z,7.50
2018-06-15T09:04:02.970Z,9.90
2018-06-15T09:06:30.534Z,8.00
2018-06-15T09:08:58.199Z,8.70
2018-06-15T09:11:25.852Z,9.80
2018-06-15T09:13:53.521Z,11.73
2018-06-15T09:16:21.164Z,10.93
2018-06-15T09:18:48.858Z,11.30
2018-06-15T09:21:16.542Z,9.90
2018-06-15T09:23:44.206Z,9.63
2018-06-15T09:26:11.806Z,9.20
2018-06-15T09:28:39.418Z,9.87
2018-06-15T09:31:07.071Z,9.50
2018-06-15T09:33:34.878Z,7.73
2018-06-15T09:36:02.544Z,7.67
2018-06-15T09:38:30.252Z,9.27
2018-06-15T09:40:57.969Z,7.60
2018-06-15T09:43:25.621Z,6.53
2018-06-15T09:45:53.370Z,7.10
2018-06-15T09:48:21.210Z,6.73
2018-06-15T09:50:48.922Z,7.30
2018-06-15T09:53:16.654Z,8.53
2018-06-15T09:55:44.427Z,7.07
2018-06-15T09:58:12.186Z,8.90
2018-06-15T10:00:45.637Z,7.40
2018-06-15T10:03:13.545Z,6.70
2018-06-15T10:05:41.442Z,6.13
2018-06-15T10:08:09.199Z,6.40
2018-06-15T10:10:36.992Z,6.10
2018-06-15T10:13:04.937Z,5.67
2018-06-15T10:15:32.964Z,6.07
2018-06-15T10:18:00.942Z,6.37
2018-06-15T10:20:28.631Z,6.40
2018-06-15T10:22:56.505Z,6.50
2018-06-15T10:25:24.366Z,5.13
2018-06-15T10:27:52.537Z,5.60
2018-06-15T10:30:20.579Z,5.63
2018-06-15T10:32:48.215Z,4.80
2018-06-15T10:35:15.825Z,5.07
2018-06-15T10:37:43.527Z,4.70
2018-06-15T10:40:11.429Z,5.00
2018-06-15T10:42:39.277Z,4.80
2018-06-15T10:45:06.957Z,4.47
2018-06-15T10:47:34.945Z,5.50
2018-06-15T10:50:03.172Z,5.50
2018-06-15T10:52:31.177Z,5.50
2018-06-15T10:54:59.035Z,5.33
2018-06-15T10:57:26.661Z,4.60
2018-06-15T10:59:54.897Z,3.90
2018-06-15T11:02:22.610Z,5.83
2018-06-15T11:04:50.323Z,5.63
2018-06-15T11:07:17.956Z,5.63
2018-06-15T11:09:45.558Z,5.40
2018-06-15T11:12:13.354Z,5.73
2018-06-15T11:14:41.014Z,4.87
2018-06-15T11:17:08.630Z,5.07
2018-06-15T11:19:36.298Z,4.00
2018-06-15T11:22:04.035Z,4.93
2018-06-15T11:24:31.649Z,4.70
2018-06-15T11:26:59.271Z,5.17
2018-06-15T11:29:27.641Z,3.60
2018-06-15T11:31:55.281Z,4.47
2018-06-15T11:34:22.937Z,4.37
2018-06-15T11:36:50.539Z,3.80
2018-06-15T11:39:18.211Z,4.10
2018-06-15T11:41:45.823Z,3.40
2018-06-15T11:44:13.518Z,3.07
2018-06-15T11:46:41.172Z,3.10
2018-06-15T11:49:08.857Z,3.50
2018-06-15T11:51:36.519Z,3.80
2018-06-15T11:54:04.327Z,3.80
2018-06-15T11:56:32.082Z,4.83
2018-06-15T11:59:00.214Z,3.53
2018-06-15T12:01:27.927Z,5.80
2018-06-15T12:03:55.653Z,5.77
2018-06-15T12:06:23.338Z,5.70
2018-06-15T12:08:51.326Z,5.70
2018-06-15T12:11:18.996Z,5.70
2018-06-15T12:13:46.606Z,5.20
2018-06-15T12:16:14.678Z,5.33
2018-06-15T12:18:42.340Z,5.47
2018-06-15T12:21:10.168Z,5.10
2018-06-15T12:23:37.978Z,5.60
2018-06-15T12:26:05.738Z,4.97
2018-06-15T12:28:33.625Z,5.00
2018-06-15T12:31:01.470Z,4.83
2018-06-15T12:33:29.194Z,4.00
2018-06-15T12:35:56.924Z,4.13
2018-06-15T12:38:24.553Z,4.03
2018-06-15T12:40:52.533Z,4.30
2018-06-15T12:43:20.221Z,4.03
2018-06-15T12:45:48.064Z,3.77
2018-06-15T12:48:15.715Z,3.70
2018-06-15T12:50:43.385Z,3.57
2018-06-15T12:53:11.047Z,3.80
2018-06-15T12:55:38.725Z,3.53
2018-06-15T12:58:06.404Z,3.50
2018-06-15T13:00:34.184Z,3.37
2018-06-15T13:03:01.853Z,3.67
2018-06-15T13:05:29.570Z,4.10
2018-06-15T13:07:57.273Z,3.50
2018-06-15T13:10:25.226Z,4.73
2018-06-15T13:12:52.900Z,5.10
2018-06-15T13:15:20.516Z,3.90
2018-06-15T13:17:48.220Z,3.67
2018-06-15T13:20:15.978Z,4.23
2018-06-15T13:22:44.602Z,4.13
2018-06-15T13:25:12.309Z,4.50
2018-06-15T13:27:40.162Z,4.20
2018-06-15T13:30:07.938Z,4.97
2018-06-15T13:32:35.635Z,5.60
2018-06-15T13:35:03.352Z,5.13
2018-06-15T13:37:31.016Z,4.07
2018-06-15T13:39:58.719Z,4.37
2018-06-15T13:42:26.463Z,4.20
2018-06-15T13:44:54.164Z,4.23
2018-06-15T13:47:21.879Z,4.40
2018-06-15T13:49:49.559Z,4.70
2018-06-15T13:52:17.220Z,4.60
2018-06-15T13:54:45.287Z,4.60
2018-06-15T13:57:12.995Z,4.20
2018-06-15T13:59:40.648Z,4.37
2018-06-15T14:02:08.390Z,3.87
2018-06-15T14:04:36.015Z,3.80
2018-06-15T14:07:04.000Z,4.00
2018-06-15T14:09:32.359Z,4.30
2018-06-15T14:12:00.097Z,3.73
2018-06-15T14:14:27.818Z,3.60
2018-06-15T14:16:55.566Z,3.10
2018-06-15T14:19:23.292Z,3.87
2018-06-15T14:21:51.290Z,3.00
2018-06-15T14:24:18.966Z,3.47
2018-06-15T14:26:46.752Z,4.20
2018-06-15T14:29:14.351Z,3.80
2018-06-15T14:31:42.606Z,5.30
2018-06-15T14:34:10.397Z,4.83
2018-06-15T14:36:38.150Z,4.70
2018-06-15T14:39:08.372Z,4.73
2018-06-15T14:41:36.017Z,5.20
2018-06-15T14:44:03.708Z,4.67
2018-06-15T14:46:31.502Z,4.63
2018-06-15T14:48:59.202Z,5.40
2018-06-15T14:51:26.894Z,4.40
2018-06-15T14:53:54.503Z,4.30
2018-06-15T14:56:22.280Z,4.90
2018-06-15T14:58:50.014Z,4.93
2018-06-15T15:01:17.798Z,5.40
2018-06-15T15:03:45.599Z,5.00
2018-06-15T15:06:13.469Z,5.50
2018-06-15T15:08:41.209Z,4.63
2018-06-15T15:11:09.485Z,4.47
2018-06-15T15:13:37.193Z,4.90
2018-06-15T15:16:04.985Z,4.10
2018-06-15T15:18:32.695Z,5.00
2018-06-15T15:21:00.359Z,4.87
2018-06-15T15:23:28.007Z,4.53
2018-06-15T15:25:55.790Z,4.37
2018-06-15T15:28:23.504Z,5.13
2018-06-15T15:30:51.302Z,4.70
2018-06-15T15:33:19.032Z,4.93
2018-06-15T15:35:47.992Z,4.57
2018-06-15T15:38:15.715Z,4.80
2018-06-15T15:40:43.628Z,5.53
2018-06-15T15:43:11.302Z,4.83
2018-06-15T15:45:38.918Z,4.70
2018-06-15T15:48:06.646Z,4.80
2018-06-15T15:50:34.447Z,5.33
2018-06-15T15:53:09.441Z,5.23
2018-06-15T15:55:38.378Z,5.13
2018-06-15T15:58:07.324Z,5.60
2018-06-15T16:00:35.062Z,5.70
2018-06-15T16:03:03.094Z,5.03
2018-06-15T16:05:30.808Z,4.60
2018-06-15T16:07:58.450Z,4.93
2018-06-15T16:10:26.090Z,5.43
2018-06-15T16:12:53.719Z,3.90
2018-06-15T16:15:21.353Z,4.40
2018-06-15T16:17:48.940Z,3.90
2018-06-15T16:20:16.666Z,4.70
2018-06-15T16:22:44.238Z,4.60
2018-06-15T16:25:11.852Z,5.17
2018-06-15T16:27:39.472Z,5.77
2018-06-15T16:30:07.170Z,4.90
2018-06-15T16:32:34.858Z,4.07
2018-06-15T16:35:02.501Z,4.53
2018-06-15T16:37:30.102Z,5.13
2018-06-15T16:39:57.753Z,4.23
2018-06-15T16:42:25.475Z,4.83
2018-06-15T16:44:53.189Z,6.83
2018-06-15T16:47:20.966Z,4.20
2018-06-15T16:49:48.669Z,4.30
2018-06-15T16:52:16.289Z,4.40
2018-06-15T16:54:43.967Z,4.00
2018-06-15T16:57:11.889Z,4.90
2018-06-15T16:59:39.491Z,3.90
2018-06-15T17:02:07.156Z,4.43
2018-06-15T17:04:34.877Z,4.37
2018-06-15T17:07:02.610Z,4.90
2018-06-15T17:09:30.379Z,4.83
2018-06-15T17:11:58.011Z,5.13
2018-06-15T17:14:25.742Z,5.50
2018-06-15T17:16:53.387Z,6.60
2018-06-15T17:19:21.123Z,5.50
2018-06-15T17:21:48.765Z,5.37
2018-06-15T17:24:16.446Z,5.90
2018-06-15T17:26:44.328Z,5.90
2018-06-15T17:29:12.563Z,5.73
2018-06-15T17:31:40.738Z,5.90
2018-06-15T17:34:08.718Z,6.17
2018-06-15T17:36:41.315Z,6.77
2018-06-15T17:39:08.981Z,5.60
2018-06-15T17:41:36.691Z,6.57
2018-06-15T17:44:04.484Z,7.40
2018-06-15T17:46:32.168Z,6.37
2018-06-15T17:48:59.878Z,6.47
2018-06-15T17:51:27.560Z,6.30
2018-06-15T17:53:55.250Z,5.93
2018-06-15T17:56:22.916Z,6.17
2018-06-15T17:58:51.021Z,7.30
2018-06-15T18:01:18.651Z,6.63
2018-06-15T18:03:46.264Z,5.77
2018-06-15T18:06:13.857Z,6.30
2018-06-15T18:08:41.530Z,6.27
2018-06-15T18:11:09.118Z,5.43
2018-06-15T18:13:37.412Z,6.10
2018-06-15T18:16:05.095Z,6.07
2018-06-15T18:18:32.806Z,6.43
2018-06-15T18:21:00.402Z,6.40
2018-06-15T18:23:28.064Z,7.30
2018-06-15T18:25:55.637Z,7.00
2018-06-15T18:28:23.382Z,7.10
2018-06-15T18:30:51.035Z,6.53
2018-06-15T18:33:18.710Z,6.60
2018-06-15T18:35:46.543Z,7.30
2018-06-15T18:38:14.157Z,6.40
2018-06-15T18:40:41.796Z,6.83
2018-06-15T18:43:09.422Z,7.10
2018-06-15T18:45:37.045Z,7.87
2018-06-15T18:48:04.858Z,7.70
2018-06-15T18:50:32.850Z,8.30
2018-06-15T18:53:00.548Z,7.73
2018-06-15T18:55:28.228Z,7.97
2018-06-15T18:57:55.918Z,7.70
2018-06-15T19:00:23.645Z,6.93
2018-06-15T19:02:51.330Z,8.10
2018-06-15T19:05:19.572Z,7.40
2018-06-15T19:07:47.250Z,8.10
2018-06-15T19:10:14.951Z,8.27
2018-06-15T19:12:42.720Z,7.53
2018-06-15T19:15:10.374Z,7.97
2018-06-15T19:17:38.005Z,7.43
2018-06-15T19:20:05.701Z,7.60
2018-06-15T19:22:33.533Z,8.17
2018-06-15T19:25:01.247Z,7.83
2018-06-15T19:27:28.896Z,8.40
2018-06-15T19:29:56.575Z,8.10
2018-06-15T19:32:24.285Z,8.13
2018-06-15T19:34:51.993Z,7.93
2018-06-15T19:37:19.581Z,7.63
2018-06-15T19:39:47.265Z,7.93
2018-06-15T19:42:14.890Z,7.50
2018-06-15T19:44:42.839Z,7.63
2018-06-15T19:47:10.673Z,8.20
2018-06-15T19:49:38.406Z,8.67
2018-06-15T19:52:06.114Z,8.30
2018-06-15T19:54:33.820Z,10.37
2018-06-15T19:57:02.103Z,9.23
2018-06-15T19:59:29.758Z,12.07
2018-06-15T20:01:57.392Z,10.07
2018-06-15T20:04:25.190Z,10.00
2018-06-15T20:06:53.592Z,9.37
2018-06-15T20:09:21.351Z,10.33
2018-06-15T20:11:49.057Z,11.33
2018-06-15T20:14:16.837Z,9.87
2018-06-15T20:16:44.535Z,9.40
2018-06-15T20:19:12.257Z,8.03
2018-06-15T20:21:39.913Z,8.80
2018-06-15T20:24:07.573Z,9.27
2018-06-15T20:26:35.282Z,9.17
2018-06-15T20:29:03.042Z,9.60
2018-06-15T20:31:30.883Z,10.50
2018-06-15T20:33:58.606Z,9.73
2018-06-15T20:36:26.604Z,10.37
2018-06-15T20:38:54.291Z,9.40
2018-06-15T20:41:21.998Z,10.83
2018-06-15T20:43:49.665Z,9.90
2018-06-15T20:46:17.333Z,9.20
2018-06-15T20:48:45.014Z,11.27
2018-06-15T20:51:12.920Z,9.93
2018-06-15T20:56:14.900Z,10.43
2018-06-15T20:58:42.556Z,11.63
2018-06-15T21:01:10.339Z,9.50
2018-06-15T21:03:37.911Z,12.37
2018-06-15T21:06:05.640Z,12.40
2018-06-15T21:08:34.307Z,10.87
2018-06-15T21:11:02.123Z,12.30
2018-06-15T21:13:29.833Z,11.87
2018-06-15T21:15:57.515Z,14.63
2018-06-15T21:18:25.203Z,10.10
2018-06-15T21:20:52.966Z,9.77
2018-06-15T21:23:20.734Z,10.47
2018-06-15T21:25:48.367Z,9.47
2018-06-15T21:28:16.030Z,9.17
2018-06-15T21:30:43.707Z,10.17
2018-06-15T21:33:11.420Z,10.20
2018-06-15T21:35:39.702Z,12.57
2018-06-15T21:38:07.394Z,13.70
2018-06-15T21:40:35.018Z,21.00
2018-06-15T21:43:02.713Z,15.90
2018-06-15T21:45:30.409Z,14.80
2018-06-15T21:47:58.091Z,9.87
2018-06-15T21:50:25.775Z,11.17
2018-06-15T21:52:53.493Z,12.90
2018-06-15T21:55:21.193Z,12.70
2018-06-15T21:57:48.887Z,11.77
2018-06-15T22:00:16.647Z,11.73
2018-06-15T22:02:44.279Z,9.47
2018-06-15T22:05:12.107Z,10.47
2018-06-15T22:07:39.801Z,9.80
2018-06-15T22:10:07.463Z,10.80
2018-06-15T22:12:36.167Z,9.37
2018-06-15T22:15:03.829Z,10.83
2018-06-15T22:17:31.577Z,10.10
2018-06-15T22:19:59.224Z,9.73
2018-06-15T22:22:26.831Z,10.80
2018-06-15T22:24:55.036Z,9.57
2018-06-15T22:27:22.681Z,9.70
2018-06-15T22:29:50.342Z,9.30
2018-06-15T22:32:17.992Z,9.13
2018-06-15T22:34:45.648Z,10.00
2018-06-15T22:37:13.266Z,9.37
2018-06-15T22:39:40.927Z,10.57
2018-06-15T22:42:08.627Z,10.57
2018-06-15T22:44:36.277Z,11.20
2018-06-15T22:47:04.119Z,10.90
2018-06-15T22:49:31.745Z,10.70
2018-06-15T22:51:59.397Z,11.13
2018-06-15T22:54:27.069Z,11.40
2018-06-15T22:56:54.685Z,11.37
2018-06-15T22:59:22.283Z,11.50
2018-06-15T23:01:49.916Z,11.80
2018-06-15T23:04:17.591Z,11.73
2018-06-15T23:06:45.199Z,11.97
2018-06-15T23:09:12.875Z,11.30
2018-06-15T23:11:41.066Z,11.00
2018-06-15T23:14:08.733Z,13.00
2018-06-15T23:16:36.383Z,14.10
2018-06-15T23:19:03.999Z,13.30
2018-06-15T23:21:31.682Z,14.30
2018-06-15T23:24:00.025Z,12.87
2018-06-15T23:26:27.662Z,13.20
2018-06-15T23:28:55.267Z,11.87
2018-06-15T23:31:22.873Z,13.23
2018-06-15T23:33:50.562Z,13.30
2018-06-15T23:36:18.182Z,12.90
2018-06-15T23:38:45.796Z,14.97
2018-06-15T23:41:13.450Z,13.53
2018-06-15T23:43:41.038Z,12.90
2018-06-15T23:46:08.642Z,14.07
2018-06-15T23:48:36.279Z,14.10
2018-06-15T23:51:04.571Z,14.40
2018-06-15T23:53:32.181Z,13.57
2018-06-15T23:55:59.780Z,13.33
2018-06-15T23:58:27.701Z,13.20
